Huvudsida
METAR-TAF:

METAR-TAF

Flygplatser :

Madrid / Getafe

Madrid-Getafe, Spanien

latitud: 40-18N, longitud: 003-43W, höjd: 620 m

Aktuellt väderrapport

Denna rapport gjordes för 4 timmar och 39 minuter sedan, klockan 20:00 UTC
Vind 4 kt från nordost, varierande mellan nord och ost
Temperatur 15°C
Fuktighet 77%
Tryck 1020 hPa
Sikt 10 km eller mer
Spridda moln på en höjd av 4500 ft

METAR: LEGT 142000Z 04004KT 010V080 9999 SCT045 15/11 Q1020

Tid: 01:39 (00:39 UTC)

Väderprognos

Denna rapport gjordes för 7 timmar och 39 minuter sedan, klockan 17:00 UTC
Prognos gäller från 14 kl. 18 UTC till 15 kl. 03 UTC
Vind 6 kt från ost/nordost
Sikt 10 km eller mer
Brutna moln på en höjd av 3000 ft
Blir
från 15 kl. 00 UTC till 15 kl. 02 UTC
Brutna moln på en höjd av 1400 ft

TAF: LEGT 141700Z 1418/1503 06006KT 9999 BKN030 BECMG 1500/1502 BKN014

Aktuella väderrapporter och prognoser från 4000 flygplatser (METAR- och TAF-rapporter).

De tillgängliga stationerna syns som gula och röda prickar på kartan.

För musen över prickarna för att se namnen på stationerna.

Klicka sedan för att få väderrapporter och prognoser.

För att ändra kartan: Klicka på de gröna knapparna med ett svart kors på för att zooma in; den gröna knappen med ett streck på för att zooma ut; eller på de gröna pilarna för angränsande kartor.


METAR-TAF: